Time;durP1;ratioP1;P1;durP2;ratioP2;P2;SDS_P1;SDS_P2;PMS_P1;PMS_P2;Temp;Humidity;BMP_temperature;BMP_pressure;BME280_temperature;BME280_humidity;BME280_pressure;Samples;Min_cycle;Max_cycle;Signal;HPM_P1;HPM_P2
2022/01/31 00:02:22;;;;;;;64.40;14.40;;;8.50;91.90;;;;;;6211794;23;20387;-63
2022/01/31 00:04:47;;;;;;;85.65;15.25;;;8.40;91.80;;;;;;6212829;23;20082;-60
2022/01/31 00:07:13;;;;;;;67.43;13.75;;;8.40;91.80;;;;;;6240016;23;20032;-63
2022/01/31 00:09:40;;;;;;;60.05;13.65;;;8.40;91.80;;;;;;6239082;23;20123;-59
2022/01/31 00:12:10;;;;;;;65.43;13.75;;;8.40;91.90;;;;;;6212021;23;20433;-62
2022/01/31 00:14:38;;;;;;;58.95;12.50;;;8.40;91.80;;;;;;6212484;23;20070;-62
2022/01/31 00:17:04;;;;;;;67.82;13.55;;;8.40;91.90;;;;;;6239059;23;20019;-61
2022/01/31 00:19:29;;;;;;;61.47;12.75;;;8.40;91.90;;;;;;6213508;23;20000;-60
2022/01/31 00:21:55;;;;;;;48.47;12.85;;;8.30;91.80;;;;;;6211542;23;19996;-60
2022/01/31 00:24:20;;;;;;;61.75;13.00;;;8.30;91.90;;;;;;6236390;23;20000;-62
2022/01/31 00:26:46;;;;;;;63.67;12.18;;;8.30;92.10;;;;;;6210165;23;20000;-60
2022/01/31 00:29:11;;;;;;;54.00;12.23;;;8.30;91.80;;;;;;6240157;23;20015;-62
2022/01/31 00:31:37;;;;;;;68.80;13.02;;;8.30;91.80;;;;;;6213194;23;20002;-60
2022/01/31 00:34:02;;;;;;;48.22;12.18;;;8.30;91.70;;;;;;6239012;23;20008;-61
2022/01/31 00:36:28;;;;;;;56.83;12.20;;;8.30;91.80;;;;;;6238260;23;20000;-62
2022/01/31 00:38:53;;;;;;;63.55;12.65;;;8.40;91.80;;;;;;6210422;23;20000;-62
2022/01/31 00:41:19;;;;;;;53.08;12.75;;;8.30;91.70;;;;;;6212809;23;20001;-61
2022/01/31 00:43:55;;;;;;;59.05;12.10;;;8.30;91.70;;;;;;6213339;23;20012;-61
2022/01/31 00:46:26;;;;;;;72.07;14.30;;;8.30;91.70;;;;;;6189106;23;20000;-60
2022/01/31 00:48:52;;;;;;;49.42;11.13;;;8.30;91.70;;;;;;6212454;23;20012;-60
2022/01/31 00:51:17;;;;;;;66.43;12.25;;;8.30;91.70;;;;;;6240390;23;20334;-62
2022/01/31 00:53:43;;;;;;;47.38;11.00;;;8.30;91.70;;;;;;6240086;23;20008;-62
2022/01/31 00:56:09;;;;;;;63.92;12.57;;;8.30;91.70;;;;;;6215549;23;20282;-60
2022/01/31 00:58:34;;;;;;;66.07;11.30;;;8.20;91.70;;;;;;6214847;23;19996;-61
2022/01/31 01:01:00;;;;;;;44.30;12.32;;;8.30;91.90;;;;;;6241352;23;20285;-60
2022/01/31 01:03:25;;;;;;;55.47;11.50;;;8.30;91.90;;;;;;6212423;23;20093;-61
2022/01/31 01:05:51;;;;;;;52.05;12.27;;;8.30;91.90;;;;;;6213195;23;20082;-61
2022/01/31 01:08:16;;;;;;;65.20;13.07;;;8.20;91.90;;;;;;6214033;23;20304;-60
2022/01/31 01:10:42;;;;;;;58.60;12.63;;;8.20;91.90;;;;;;6189549;23;20402;-61
2022/01/31 01:13:07;;;;;;;63.92;11.35;;;8.20;91.90;;;;;;6241085;23;20058;-61
2022/01/31 01:15:33;;;;;;;47.70;10.65;;;8.20;91.90;;;;;;6239460;23;20086;-61
2022/01/31 01:17:58;;;;;;;36.00;11.20;;;8.30;91.90;;;;;;6211375;23;20115;-60
2022/01/31 01:20:24;;;;;;;48.42;10.27;;;8.20;91.80;;;;;;6189640;23;20015;-61
2022/01/31 01:22:49;;;;;;;49.88;10.60;;;8.20;91.80;;;;;;6189042;23;20016;-61
2022/01/31 01:25:15;;;;;;;39.47;10.90;;;8.20;91.80;;;;;;6241170;23;20032;-62
2022/01/31 01:27:42;;;;;;;57.30;12.85;;;8.20;91.80;;;;;;6186409;23;20000;-62
2022/01/31 01:30:10;;;;;;;46.33;12.45;;;8.20;91.70;;;;;;6211854;23;20499;-61
2022/01/31 01:32:46;;;;;;;41.30;10.68;;;8.20;91.70;;;;;;6238331;23;20298;-60
2022/01/31 01:35:11;;;;;;;;;;;8.20;91.70;;;;;;6214674;23;20377;-62
2022/01/31 01:37:37;;;;;;;;;;;8.20;91.70;;;;;;6208890;23;19904;-62
2022/01/31 01:40:04;;;;;;;28.97;9.10;;;8.10;91.60;;;;;;6240965;23;19904;-60
2022/01/31 01:42:29;;;;;;;34.40;9.80;;;8.20;91.60;;;;;;6187213;23;20008;-59
2022/01/31 01:44:55;;;;;;;44.50;10.68;;;8.20;91.70;;;;;;6239380;23;20026;-61
2022/01/31 01:47:22;;;;;;;41.10;10.50;;;8.20;91.70;;;;;;6240034;23;20544;-60
2022/01/31 01:49:48;;;;;;;30.90;9.13;;;8.20;91.70;;;;;;6188749;23;20019;-61
2022/01/31 01:52:13;;;;;;;33.60;9.23;;;8.20;91.70;;;;;;6184313;23;20008;-61
2022/01/31 01:54:39;;;;;;;30.58;9.45;;;8.20;91.80;;;;;;6211118;23;20007;-62
2022/01/31 01:57:05;;;;;;;33.28;8.95;;;8.20;91.80;;;;;;6187712;23;20140;-63
2022/01/31 01:59:35;;;;;;;33.28;9.38;;;8.10;91.70;;;;;;6241661;23;20453;-60
2022/01/31 02:02:01;;;;;;;41.50;10.10;;;8.20;91.80;;;;;;6239664;23;20008;-62
2022/01/31 02:04:27;;;;;;;36.92;10.00;;;8.10;91.70;;;;;;6240490;23;20000;-59
2022/01/31 02:06:53;;;;;;;29.13;9.05;;;8.10;91.80;;;;;;6236616;23;20007;-59
2022/01/31 02:09:21;;;;;;;29.85;9.10;;;8.10;91.70;;;;;;6236486;23;20004;-60
2022/01/31 02:11:47;;;;;;;26.00;9.07;;;8.20;91.60;;;;;;6213970;23;20073;-59
2022/01/31 02:14:13;;;;;;;37.40;9.88;;;8.20;91.60;;;;;;6189807;23;20469;-60
2022/01/31 02:16:38;;;;;;;37.42;11.15;;;8.10;91.50;;;;;;6212282;23;20004;-61
2022/01/31 02:19:04;;;;;;;33.88;9.77;;;8.10;91.40;;;;;;6240417;23;20010;-60
2022/01/31 02:21:29;;;;;;;29.42;9.82;;;8.10;91.40;;;;;;6237873;23;20075;-59
2022/01/31 02:23:55;;;;;;;25.25;9.27;;;8.10;91.50;;;;;;6208975;23;20000;-60
2022/01/31 02:26:20;;;;;;;23.05;8.02;;;8.10;91.40;;;;;;6241543;23;20087;-60
2022/01/31 02:28:46;;;;;;;24.95;8.77;;;8.00;91.30;;;;;;6240564;23;20325;-62
2022/01/31 02:31:11;;;;;;;28.77;9.18;;;8.10;91.40;;;;;;6212659;23;20422;-60
2022/01/31 02:33:37;;;;;;;26.92;8.45;;;8.00;91.30;;;;;;6211185;23;20004;-62
2022/01/31 02:36:04;;;;;;;22.00;6.72;;;8.00;91.30;;;;;;6238747;23;20000;-63
2022/01/31 02:38:30;;;;;;;18.38;7.38;;;8.00;91.20;;;;;;6208931;23;20019;-59
2022/01/31 02:40:55;;;;;;;24.38;7.68;;;8.00;91.10;;;;;;6212263;23;20416;-62
2022/01/31 02:43:26;;;;;;;16.25;6.90;;;8.00;91.10;;;;;;6213722;23;20004;-60
2022/01/31 02:45:51;;;;;;;21.10;7.03;;;8.00;91.10;;;;;;6186597;23;20038;-62
2022/01/31 02:48:20;;;;;;;15.50;6.32;;;7.90;91.10;;;;;;6208509;23;20008;-60
2022/01/31 02:50:45;;;;;;;25.80;7.22;;;7.90;91.10;;;;;;6212156;23;20018;-61
2022/01/31 02:55:38;;;;;;;18.13;6.68;;;7.90;91.00;;;;;;6213311;23;20008;-61
2022/01/31 02:58:04;;;;;;;14.38;5.72;;;7.90;91.00;;;;;;6236759;23;20442;-60
2022/01/31 03:00:29;;;;;;;25.92;6.95;;;7.90;91.00;;;;;;6237042;23;20236;-59
2022/01/31 03:02:55;;;;;;;19.08;6.35;;;7.90;91.00;;;;;;6210824;23;20008;-60
2022/01/31 03:05:20;;;;;;;16.38;6.25;;;7.90;90.90;;;;;;6240832;23;20011;-61
2022/01/31 03:07:46;;;;;;;17.88;6.38;;;7.80;90.80;;;;;;6236394;23;20000;-61
2022/01/31 03:10:11;;;;;;;17.60;6.13;;;7.80;90.80;;;;;;6211557;23;20525;-60
2022/01/31 03:12:36;;;;;;;14.77;6.55;;;7.80;90.80;;;;;;6237293;23;20042;-59
2022/01/31 03:15:02;;;;;;;17.58;6.72;;;7.80;90.70;;;;;;6235605;23;20054;-60
2022/01/31 03:17:28;;;;;;;16.40;6.10;;;7.80;90.70;;;;;;6238679;23;20003;-62
2022/01/31 03:19:54;;;;;;;14.70;5.93;;;7.80;90.70;;;;;;6213104;23;20433;-60
2022/01/31 03:22:21;;;;;;;17.92;5.65;;;7.80;90.70;;;;;;6213170;23;20437;-62
2022/01/31 03:24:48;;;;;;;19.33;6.15;;;7.70;90.60;;;;;;6211697;23;20000;-62
2022/01/31 03:27:14;;;;;;;12.05;5.90;;;7.80;90.60;;;;;;6210387;23;20422;-61
2022/01/31 03:29:39;;;;;;;18.38;5.78;;;7.80;90.60;;;;;;6211934;23;20004;-62
2022/01/31 03:32:05;;;;;;;14.57;5.95;;;7.70;90.50;;;;;;6187757;23;20008;-62
2022/01/31 03:34:30;;;;;;;17.45;5.65;;;7.70;90.50;;;;;;6212498;23;20039;-60
2022/01/31 03:36:56;;;;;;;12.20;5.72;;;7.70;90.50;;;;;;6237412;23;20426;-61
2022/01/31 03:39:22;;;;;;;16.60;6.30;;;7.70;90.50;;;;;;6237157;23;19999;-61
2022/01/31 03:41:47;;;;;;;13.35;5.60;;;7.70;90.50;;;;;;6186281;23;20004;-62
2022/01/31 03:44:13;;;;;;;12.10;4.85;;;7.70;90.50;;;;;;6239504;23;20024;-60
2022/01/31 03:46:38;;;;;;;12.75;5.15;;;7.70;90.40;;;;;;6239458;23;20031;-61
2022/01/31 03:49:04;;;;;;;11.75;4.55;;;7.70;90.50;;;;;;6239627;23;20024;-62
2022/01/31 03:51:29;;;;;;;12.18;4.70;;;7.70;90.40;;;;;;6237749;23;20418;-62
2022/01/31 03:53:55;;;;;;;8.68;4.88;;;7.60;90.40;;;;;;6234461;23;20112;-59
2022/01/31 03:56:20;;;;;;;16.40;5.15;;;7.60;90.40;;;;;;6211892;23;20102;-62
2022/01/31 03:58:46;;;;;;;10.77;4.78;;;7.60;90.40;;;;;;6212599;23;20374;-60
2022/01/31 04:01:11;;;;;;;12.68;5.03;;;7.60;90.50;;;;;;6188866;23;20011;-60
2022/01/31 04:03:37;;;;;;;10.65;4.63;;;7.60;90.50;;;;;;6238457;23;20030;-60
2022/01/31 04:06:02;;;;;;;9.65;4.53;;;7.60;90.50;;;;;;6237915;23;20062;-61
2022/01/31 04:08:28;;;;;;;11.18;5.18;;;7.60;90.50;;;;;;6233267;23;20344;-62
2022/01/31 04:10:53;;;;;;;8.35;4.07;;;7.60;90.50;;;;;;6210901;23;20003;-60
2022/01/31 04:13:19;;;;;;;10.98;4.78;;;7.60;90.50;;;;;;6239366;23;20007;-62
2022/01/31 04:15:45;;;;;;;11.38;4.70;;;7.60;90.50;;;;;;6239927;23;20007;-60
2022/01/31 04:18:10;;;;;;;14.80;4.70;;;7.60;90.50;;;;;;6209080;23;20442;-61
2022/01/31 04:20:36;;;;;;;9.93;4.78;;;7.60;90.40;;;;;;6209586;23;20478;-61
2022/01/31 04:23:10;;;;;;;11.75;5.43;;;7.60;90.40;;;;;;6206817;23;20004;-61
2022/01/31 04:25:43;;;;;;;12.20;5.15;;;7.60;90.40;;;;;;6234659;23;20129;-61
2022/01/31 04:28:21;;;;;;;14.05;6.35;;;7.60;90.40;;;;;;6208090;23;20074;-61
2022/01/31 04:33:38;;;;;;;10.43;4.65;;;7.60;90.30;;;;;;6172011;23;20023;-60
2022/01/31 04:36:03;;;;;;;11.48;5.25;;;7.60;90.40;;;;;;6186908;23;20406;-61
2022/01/31 04:38:29;;;;;;;12.90;4.80;;;7.60;90.40;;;;;;6184983;23;20376;-60
2022/01/31 04:40:54;;;;;;;12.57;5.00;;;7.60;90.40;;;;;;6239403;23;20030;-61
2022/01/31 04:43:20;;;;;;;9.88;4.80;;;7.60;90.40;;;;;;6238316;23;20047;-62
2022/01/31 04:45:49;;;;;;;15.55;4.90;;;7.60;90.40;;;;;;6236448;23;20054;-61
2022/01/31 04:48:15;;;;;;;17.17;5.15;;;7.60;90.40;;;;;;6212159;23;20114;-60
2022/01/31 04:50:42;;;;;;;20.15;5.97;;;7.50;90.30;;;;;;6162074;23;20326;-62
2022/01/31 04:53:08;;;;;;;19.65;6.35;;;7.60;90.40;;;;;;6210409;23;20001;-61
2022/01/31 04:55:34;;;;;;;20.20;5.88;;;7.50;90.40;;;;;;6210351;23;19996;-62
2022/01/31 04:58:00;;;;;;;26.58;6.93;;;7.60;90.40;;;;;;6208791;23;20104;-62
2022/01/31 05:00:25;;;;;;;34.72;7.93;;;7.50;90.40;;;;;;6210414;23;20008;-60
2022/01/31 05:02:51;;;;;;;28.70;7.72;;;7.60;90.40;;;;;;6211676;23;20004;-59
2022/01/31 05:05:16;;;;;;;25.50;7.45;;;7.50;90.40;;;;;;6186600;23;20012;-61
2022/01/31 05:07:42;;;;;;;23.33;6.65;;;7.50;90.50;;;;;;6237576;23;20425;-61
2022/01/31 05:10:08;;;;;;;22.50;5.95;;;7.50;90.50;;;;;;6208608;23;20004;-60
2022/01/31 05:12:34;;;;;;;31.67;7.32;;;7.60;90.50;;;;;;6185356;23;20346;-61
2022/01/31 05:14:59;;;;;;;35.90;7.18;;;7.50;90.50;;;;;;6211881;23;20007;-61
2022/01/31 05:17:25;;;;;;;23.02;6.65;;;7.50;90.50;;;;;;6238691;23;20008;-60
2022/01/31 05:19:50;;;;;;;30.98;7.07;;;7.50;90.50;;;;;;6211601;23;20397;-60
2022/01/31 05:22:16;;;;;;;19.75;7.15;;;7.50;90.50;;;;;;6236289;23;20405;-60
2022/01/31 05:24:41;;;;;;;32.47;7.80;;;7.50;90.50;;;;;;6235509;23;20499;-61
2022/01/31 05:27:07;;;;;;;75.78;9.98;;;7.50;90.50;;;;;;6210535;23;20046;-60
2022/01/31 05:29:32;;;;;;;31.65;8.43;;;7.50;90.50;;;;;;6239991;23;20032;-62
2022/01/31 05:31:58;;;;;;;44.50;8.13;;;7.50;90.50;;;;;;6238749;23;20004;-62
2022/01/31 05:34:24;;;;;;;46.50;7.90;;;7.50;90.50;;;;;;6240580;23;19996;-61
2022/01/31 05:36:54;;;;;;;38.47;7.30;;;7.50;90.50;;;;;;6185865;23;20438;-60
2022/01/31 05:39:21;;;;;;;36.08;6.93;;;7.50;90.50;;;;;;6186357;23;20000;-59
2022/01/31 05:41:46;;;;;;;38.58;7.53;;;7.50;90.50;;;;;;6214228;23;20128;-61
2022/01/31 05:44:12;;;;;;;34.72;8.07;;;7.50;90.60;;;;;;6213298;23;20115;-60
2022/01/31 05:46:37;;;;;;;39.80;7.20;;;7.50;90.60;;;;;;6241003;23;20081;-59
2022/01/31 05:49:03;;;;;;;34.45;7.13;;;7.50;90.60;;;;;;6238278;23;20079;-59
2022/01/31 05:51:28;;;;;;;31.30;6.90;;;7.50;90.60;;;;;;6238005;23;20395;-60
2022/01/31 05:53:54;;;;;;;31.23;7.28;;;7.50;90.60;;;;;;6236490;23;20042;-61
2022/01/31 05:56:19;;;;;;;28.05;7.70;;;7.50;90.70;;;;;;6214394;23;20461;-60
2022/01/31 05:58:45;;;;;;;29.20;6.65;;;7.50;90.70;;;;;;6240023;23;20000;-62
2022/01/31 06:01:10;;;;;;;32.97;8.25;;;7.50;90.70;;;;;;6213578;23;20004;-60
2022/01/31 06:03:37;;;;;;;32.88;7.70;;;7.50;90.80;;;;;;6237443;23;20058;-62
2022/01/31 06:06:03;;;;;;;24.13;6.20;;;7.50;90.80;;;;;;6239727;23;20008;-61
2022/01/31 06:08:29;;;;;;;30.73;7.30;;;7.50;90.80;;;;;;6210327;23;20297;-61
2022/01/31 06:10:54;;;;;;;28.17;6.47;;;7.40;90.80;;;;;;6213244;23;20433;-63
2022/01/31 06:13:24;;;;;;;25.27;5.97;;;7.50;90.80;;;;;;6240800;23;20004;-63
2022/01/31 06:15:50;;;;;;;27.42;5.85;;;7.50;90.70;;;;;;6213262;23;20000;-64
2022/01/31 06:18:16;;;;;;;30.80;6.55;;;7.50;90.70;;;;;;6210744;23;20147;-60
2022/01/31 06:20:41;;;;;;;26.75;6.75;;;7.40;90.70;;;;;;6240828;23;20442;-61
2022/01/31 06:23:07;;;;;;;30.70;6.97;;;7.40;90.70;;;;;;6214196;23;20000;-61
2022/01/31 06:25:34;;;;;;;40.03;6.95;;;7.40;90.80;;;;;;6188448;23;20035;-62
2022/01/31 06:27:59;;;;;;;23.45;6.63;;;7.40;90.70;;;;;;6212950;23;20004;-61
2022/01/31 06:30:25;;;;;;;24.35;6.28;;;7.40;90.70;;;;;;6212291;23;20038;-62
2022/01/31 06:32:51;;;;;;;20.83;6.32;;;7.40;90.70;;;;;;6212317;23;20389;-62
2022/01/31 06:35:17;;;;;;;22.85;5.68;;;7.40;90.70;;;;;;6188528;23;20010;-60
2022/01/31 06:37:43;;;;;;;19.70;5.20;;;7.40;90.70;;;;;;6239944;23;19999;-60
2022/01/31 06:40:08;;;;;;;19.25;5.93;;;7.40;91.00;;;;;;6213854;23;20014;-61
2022/01/31 06:42:34;;;;;;;22.17;5.75;;;7.40;90.70;;;;;;6238727;23;20014;-62
2022/01/31 06:44:59;;;;;;;23.30;6.05;;;7.40;90.70;;;;;;6186795;23;20000;-60
2022/01/31 06:47:25;;;;;;;22.33;5.72;;;7.40;90.70;;;;;;6188171;23;20381;-61
2022/01/31 06:49:51;;;;;;;32.03;6.35;;;7.40;90.70;;;;;;6240406;23;20191;-62
2022/01/31 06:52:16;;;;;;;22.98;5.75;;;7.40;90.70;;;;;;6163450;23;20058;-60
2022/01/31 06:54:43;;;;;;;17.50;6.22;;;7.40;90.70;;;;;;6210642;23;20184;-62
2022/01/31 06:57:09;;;;;;;32.25;6.80;;;7.40;90.60;;;;;;6236604;23;20016;-61
2022/01/31 06:59:36;;;;;;;25.38;5.68;;;7.40;90.60;;;;;;6211957;23;20027;-63
2022/01/31 07:02:01;;;;;;;12.80;5.53;;;7.40;90.90;;;;;;6212892;23;20035;-61
2022/01/31 07:04:27;;;;;;;15.93;6.20;;;7.50;90.60;;;;;;6211057;23;20004;-59
2022/01/31 07:06:52;;;;;;;22.50;5.53;;;7.40;90.40;;;;;;6238602;23;20087;-63
2022/01/31 07:09:18;;;;;;;19.10;5.22;;;7.40;90.40;;;;;;6238114;23;20414;-64
2022/01/31 07:11:44;;;;;;;14.20;4.60;;;7.40;90.40;;;;;;6238480;23;20083;-61
2022/01/31 07:16:53;;;;;;;11.77;4.05;;;7.40;90.30;;;;;;6239900;23;20031;-60
2022/01/31 07:19:22;;;;;;;15.63;4.53;;;7.40;90.30;;;;;;6210105;23;20004;-61
2022/01/31 07:21:50;;;;;;;12.77;5.05;;;7.40;90.30;;;;;;6187883;23;20389;-63
2022/01/31 07:26:45;;;;;;;11.75;4.30;;;7.40;90.20;;;;;;6212147;23;20008;-62
2022/01/31 07:29:10;;;;;;;10.05;4.00;;;7.40;90.20;;;;;;6209680;23;20022;-61
2022/01/31 07:31:36;;;;;;;13.18;4.55;;;7.40;90.40;;;;;;6238796;23;20102;-62
2022/01/31 07:34:01;;;;;;;13.32;4.40;;;7.50;90.10;;;;;;6238031;23;20008;-63
2022/01/31 07:36:27;;;;;;;14.70;3.85;;;7.50;90.10;;;;;;6211526;23;20023;-60
2022/01/31 07:38:52;;;;;;;13.85;4.18;;;7.40;90.00;;;;;;6238592;23;20455;-61
2022/01/31 07:41:18;;;;;;;13.02;4.35;;;7.40;90.00;;;;;;6238717;23;20024;-61
2022/01/31 07:43:44;;;;;;;11.43;3.95;;;7.40;90.30;;;;;;6239228;23;20000;-62
2022/01/31 07:46:12;;;;;;;18.08;3.80;;;7.40;90.10;;;;;;6211263;23;20057;-61
2022/01/31 07:48:37;;;;;;;9.75;3.30;;;7.40;90.00;;;;;;6206769;23;20010;-61
2022/01/31 07:51:02;;;;;;;9.13;3.28;;;7.40;90.00;;;;;;6184634;23;20016;-61
2022/01/31 07:53:28;;;;;;;12.07;3.88;;;7.40;90.00;;;;;;6237509;23;20429;-60
2022/01/31 07:55:53;;;;;;;7.75;3.50;;;7.40;89.90;;;;;;6211692;23;20007;-60
2022/01/31 07:58:20;;;;;;;9.90;3.50;;;7.40;90.00;;;;;;6238854;23;20057;-62
2022/01/31 08:00:45;;;;;;;10.07;3.60;;;7.40;90.00;;;;;;6236620;23;20030;-61
2022/01/31 08:03:11;;;;;;;13.23;3.53;;;7.40;90.00;;;;;;6208193;23;20024;-60
2022/01/31 08:05:37;;;;;;;7.28;3.08;;;7.40;90.00;;;;;;6210246;23;20008;-60
2022/01/31 08:08:02;;;;;;;15.95;3.58;;;7.40;89.90;;;;;;6209325;23;20014;-62
2022/01/31 08:10:28;;;;;;;10.00;3.78;;;7.40;90.00;;;;;;6210692;23;20008;-62
2022/01/31 08:12:55;;;;;;;10.07;3.25;;;7.40;90.10;;;;;;6210249;23;20004;-60
2022/01/31 08:15:26;;;;;;;9.57;3.30;;;7.40;90.10;;;;;;6211051;23;20087;-60
2022/01/31 08:17:51;;;;;;;10.18;3.35;;;7.40;90.10;;;;;;6237400;23;20046;-63
2022/01/31 08:20:17;;;;;;;9.50;2.80;;;7.40;90.10;;;;;;6212315;23;20000;-62
2022/01/31 08:22:42;;;;;;;11.77;3.00;;;7.40;90.10;;;;;;6238696;23;20369;-62
2022/01/31 08:25:13;;;;;;;12.15;3.72;;;7.50;90.10;;;;;;6183321;23;20278;-60
2022/01/31 08:27:42;;;;;;;7.68;2.85;;;7.40;90.10;;;;;;6185311;23;20018;-62
2022/01/31 08:30:12;;;;;;;11.85;3.45;;;7.40;90.10;;;;;;6185059;23;20004;-61
2022/01/31 08:32:45;;;;;;;13.88;4.15;;;7.40;90.20;;;;;;6184495;23;20004;-61
2022/01/31 08:37:55;;;;;;;71.63;8.98;;;7.40;90.10;;;;;;6238582;23;20099;-60
2022/01/31 08:40:21;;;;;;;18.52;4.53;;;7.40;90.20;;;;;;6237832;23;20397;-60
2022/01/31 08:42:46;;;;;;;24.95;4.40;;;7.50;90.20;;;;;;6236361;23;20008;-59
2022/01/31 08:45:12;;;;;;;16.60;3.92;;;7.40;90.20;;;;;;6210421;23;20264;-59
2022/01/31 08:47:41;;;;;;;17.25;3.70;;;7.40;90.30;;;;;;6212629;23;20385;-62
2022/01/31 08:50:07;;;;;;;22.63;4.05;;;7.40;90.30;;;;;;6187616;23;20004;-61
2022/01/31 08:52:33;;;;;;;28.75;4.15;;;7.40;90.40;;;;;;6210152;23;20008;-63
2022/01/31 08:54:58;;;;;;;62.20;6.18;;;7.40;90.40;;;;;;6183235;23;20010;-64
2022/01/31 08:57:24;;;;;;;31.58;4.97;;;7.40;90.50;;;;;;6232925;23;20285;-63
2022/01/31 08:59:51;;;;;;;18.50;3.53;;;7.40;90.50;;;;;;6238539;23;20042;-65
2022/01/31 09:02:29;;;;;;;19.10;4.38;;;7.40;90.60;;;;;;6212016;23;20105;-59
2022/01/31 09:04:55;;;;;;;24.92;4.13;;;7.40;90.60;;;;;;6211910;23;20003;-61
2022/01/31 09:07:22;;;;;;;25.95;4.13;;;7.40;90.70;;;;;;6210383;23;20005;-62
2022/01/31 09:09:51;;;;;;;13.05;4.63;;;7.40;90.80;;;;;;6188120;23;19996;-59
2022/01/31 09:12:17;;;;;;;17.48;4.13;;;7.40;90.80;;;;;;6213557;23;20067;-61
2022/01/31 09:14:43;;;;;;;21.02;4.10;;;7.40;90.90;;;;;;6236032;23;20083;-61
2022/01/31 09:17:09;;;;;;;13.05;3.75;;;7.40;90.90;;;;;;6187484;23;20535;-62
2022/01/31 09:19:34;;;;;;;19.17;3.90;;;7.40;91.00;;;;;;6211522;23;20146;-63
2022/01/31 09:22:01;;;;;;;16.00;3.58;;;7.40;91.00;;;;;;6238214;23;20062;-65
2022/01/31 09:24:30;;;;;;;18.80;3.47;;;7.40;91.00;;;;;;6212493;23;20402;-62
2022/01/31 09:26:56;;;;;;;20.52;3.53;;;7.40;91.10;;;;;;6214199;23;20395;-63
2022/01/31 09:29:21;;;;;;;18.33;4.15;;;7.40;91.10;;;;;;6186823;23;20108;-63
2022/01/31 09:31:47;;;;;;;9.82;3.10;;;7.40;91.20;;;;;;6212368;23;20011;-60
2022/01/31 09:34:12;;;;;;;14.57;3.25;;;7.40;91.20;;;;;;6239816;23;20012;-64
2022/01/31 09:36:38;;;;;;;12.13;3.20;;;7.40;91.30;;;;;;6240747;23;20058;-62
2022/01/31 09:39:04;;;;;;;15.80;3.38;;;7.40;91.30;;;;;;6215023;23;20006;-60
2022/01/31 09:41:31;;;;;;;24.90;3.67;;;7.40;91.30;;;;;;6189340;23;20008;-60
2022/01/31 09:44:17;;;;;;;21.15;3.40;;;7.40;91.40;;;;;;6181263;23;20000;-58
2022/01/31 09:47:07;;;;;;;;;;;7.30;91.40;;;;;;6207764;23;20460;-65
2022/01/31 09:49:29;;;;;;;27.33;3.42;;;7.30;91.50;;;;;;6232584;23;19993;-62
2022/01/31 09:51:54;;;;;;;13.43;2.90;;;7.30;91.50;;;;;;6234369;23;20458;-60
2022/01/31 09:54:20;;;;;;;19.98;3.50;;;7.30;91.60;;;;;;6236345;23;20386;-60
2022/01/31 09:56:46;;;;;;;18.33;3.28;;;7.30;91.60;;;;;;6182756;23;20078;-60
2022/01/31 09:59:12;;;;;;;19.35;3.60;;;7.40;91.70;;;;;;6181888;23;20003;-61
2022/01/31 10:01:47;;;;;;;17.63;3.47;;;7.30;91.70;;;;;;6181627;23;20074;-61
2022/01/31 10:04:17;;;;;;;16.13;3.00;;;7.30;91.70;;;;;;6207234;23;20373;-61
2022/01/31 10:06:43;;;;;;;11.85;3.00;;;7.30;91.70;;;;;;6158795;23;20341;-61
2022/01/31 10:09:19;;;;;;;22.58;3.30;;;7.30;91.80;;;;;;6208214;23;20062;-60
2022/01/31 10:11:56;;;;;;;30.00;4.70;;;7.30;91.70;;;;;;6231613;23;20114;-61
2022/01/31 10:17:30;;;;;;;27.38;3.20;;;7.40;91.80;;;;;;6232275;23;20027;-59
2022/01/31 10:19:58;;;;;;;17.02;2.85;;;7.30;91.80;;;;;;6234955;23;20062;-59
2022/01/31 10:22:25;;;;;;;24.23;3.25;;;7.30;91.80;;;;;;6184516;23;20066;-61
2022/01/31 10:24:53;;;;;;;16.42;2.90;;;7.40;91.90;;;;;;6184817;23;19996;-61
2022/01/31 10:27:23;;;;;;;18.77;3.80;;;7.30;91.90;;;;;;6212554;23;20001;-59
2022/01/31 10:29:50;;;;;;;10.02;2.63;;;7.30;91.90;;;;;;6239363;23;20004;-61
2022/01/31 10:32:22;;;;;;;29.58;3.33;;;7.30;92.00;;;;;;6212584;23;20028;-59
2022/01/31 10:34:51;;;;;;;22.35;3.17;;;7.30;92.00;;;;;;6237208;23;20516;-62
2022/01/31 10:37:18;;;;;;;20.10;2.90;;;7.30;92.00;;;;;;6236961;23;20079;-63
2022/01/31 10:45:27;;;;;;;;;;;7.30;92.00;;;;;;6215149;23;20314;-62
2022/01/31 10:53:56;;;;;;;16.08;3.45;;;7.30;92.10;;;;;;6234441;23;20068;-63
2022/01/31 10:56:22;;;;;;;21.35;4.05;;;7.30;92.20;;;;;;6189227;23;20016;-61
2022/01/31 10:58:59;;;;;;;18.85;3.40;;;7.30;92.20;;;;;;6185298;23;20453;-64
2022/01/31 11:01:25;;;;;;;17.58;2.72;;;7.30;92.30;;;;;;6211965;23;20004;-59
2022/01/31 11:03:51;;;;;;;20.95;3.33;;;7.30;92.40;;;;;;6237471;23;20430;-62
2022/01/31 11:06:17;;;;;;;23.80;3.40;;;7.30;92.50;;;;;;6182818;23;20014;-61
2022/01/31 11:08:42;;;;;;;28.75;4.03;;;7.20;92.60;;;;;;6207458;23;20445;-64
2022/01/31 11:11:08;;;;;;;19.45;2.75;;;7.20;92.80;;;;;;6237695;23;20067;-63
2022/01/31 11:13:34;;;;;;;32.20;4.47;;;7.20;92.70;;;;;;6212426;23;20058;-62
2022/01/31 11:16:00;;;;;;;35.22;4.57;;;7.20;92.70;;;;;;6211464;23;20018;-64
2022/01/31 11:18:29;;;;;;;49.00;5.13;;;7.30;92.70;;;;;;6236207;23;20079;-63
2022/01/31 11:21:00;;;;;;;27.13;4.47;;;7.30;92.70;;;;;;6234924;23;20035;-62
2022/01/31 11:23:27;;;;;;;36.20;5.32;;;7.30;92.60;;;;;;6208512;23;20027;-64
2022/01/31 11:25:55;;;;;;;54.83;5.20;;;7.30;92.60;;;;;;6238338;23;20007;-61
2022/01/31 11:28:20;;;;;;;73.68;7.53;;;7.30;92.50;;;;;;6236259;23;20000;-59
2022/01/31 11:30:46;;;;;;;63.90;7.30;;;7.20;92.50;;;;;;6207426;23;20280;-61
2022/01/31 11:33:11;;;;;;;57.58;7.10;;;7.30;92.50;;;;;;6209563;23;20098;-60
2022/01/31 11:35:37;;;;;;;74.68;7.70;;;7.20;92.60;;;;;;6237425;23;20042;-62
2022/01/31 11:38:02;;;;;;;30.95;4.25;;;7.20;92.60;;;;;;6209047;23;20000;-60
2022/01/31 11:40:28;;;;;;;47.20;6.25;;;7.20;92.60;;;;;;6237669;23;20101;-59
2022/01/31 11:42:53;;;;;;;44.30;6.03;;;7.20;92.60;;;;;;6183704;23;20004;-59
2022/01/31 11:45:23;;;;;;;50.35;6.05;;;7.30;92.60;;;;;;6207805;23;20394;-61
2022/01/31 11:47:49;;;;;;;52.85;6.18;;;7.20;92.50;;;;;;6207455;23;20020;-61
2022/01/31 11:50:15;;;;;;;54.67;6.75;;;7.20;92.50;;;;;;6184135;23;20027;-61
2022/01/31 11:52:44;;;;;;;44.97;5.88;;;7.30;92.60;;;;;;6205115;23;20023;-60
2022/01/31 11:55:12;;;;;;;44.05;5.95;;;7.30;92.70;;;;;;6231327;23;20000;-59
2022/01/31 11:57:38;;;;;;;41.00;6.75;;;7.30;92.60;;;;;;6150343;23;20021;-61
2022/01/31 12:00:09;;;;;;;48.85;6.40;;;7.30;92.60;;;;;;6198615;23;20079;-62
2022/01/31 12:02:45;;;;;;;58.63;6.80;;;7.30;92.70;;;;;;6202421;23;20275;-60
2022/01/31 12:05:16;;;;;;;65.85;8.82;;;7.30;92.90;;;;;;6179521;23;20009;-63
2022/01/31 12:07:43;;;;;;;63.38;8.45;;;7.40;92.90;;;;;;6205254;23;20008;-62
2022/01/31 12:10:22;;;;;;;55.55;7.13;;;7.40;92.80;;;;;;6203410;23;20051;-63
2022/01/31 12:13:34;;;;;;;44.92;6.95;;;7.40;92.80;;;;;;6207046;23;20056;-62
2022/01/31 12:23:53;;;;;;;28.17;5.13;;;7.30;92.80;;;;;;6184236;23;20011;-63
2022/01/31 12:26:39;;;;;;;51.38;5.78;;;7.30;92.80;;;;;;6179138;23;20012;-60
2022/01/31 12:29:09;;;;;;;52.67;6.75;;;7.30;92.90;;;;;;6205605;23;20610;-60
2022/01/31 12:31:35;;;;;;;48.10;7.18;;;7.30;93.00;;;;;;6155240;23;20103;-59
2022/01/31 12:34:08;;;;;;;49.13;5.22;;;7.40;93.00;;;;;;6205222;23;20407;-61
2022/01/31 12:36:36;;;;;;;53.72;5.75;;;7.40;93.00;;;;;;6177042;23;20008;-60
2022/01/31 12:39:31;;;;;;;45.95;6.60;;;7.40;93.00;;;;;;6201242;23;20033;-60
2022/01/31 12:42:02;;;;;;;65.45;7.90;;;7.40;92.90;;;;;;6206013;23;20011;-63
2022/01/31 12:44:38;;;;;;;32.67;5.03;;;7.40;92.90;;;;;;6179017;23;20067;-61
2022/01/31 12:47:07;;;;;;;32.45;6.70;;;7.40;92.90;;;;;;6207409;23;20431;-59
2022/01/31 12:49:33;;;;;;;43.10;6.75;;;7.40;93.00;;;;;;6175411;23;20092;-60
2022/01/31 12:52:04;;;;;;;44.25;5.40;;;7.40;93.20;;;;;;6206905;23;20080;-62
2022/01/31 12:54:29;;;;;;;42.55;5.05;;;7.40;93.30;;;;;;6181160;23;20008;-59
2022/01/31 12:56:57;;;;;;;54.75;6.30;;;7.40;93.30;;;;;;6206257;23;20023;-58
2022/01/31 12:59:23;;;;;;;26.88;4.20;;;7.40;93.20;;;;;;6205134;23;20387;-63
2022/01/31 13:01:50;;;;;;;30.60;4.78;;;7.40;93.10;;;;;;6207582;23;20087;-62
2022/01/31 13:04:23;;;;;;;25.15;4.10;;;7.40;93.20;;;;;;6204217;23;20015;-62
2022/01/31 13:06:49;;;;;;;23.80;3.75;;;7.40;93.10;;;;;;6180498;23;20087;-61
2022/01/31 13:09:19;;;;;;;18.20;3.17;;;7.40;93.10;;;;;;6206945;23;20084;-61
2022/01/31 13:11:46;;;;;;;25.20;4.30;;;7.40;93.00;;;;;;6208523;23;20007;-59
2022/01/31 13:14:16;;;;;;;22.17;4.03;;;7.40;93.00;;;;;;6206601;23;20019;-59
2022/01/31 13:16:50;;;;;;;27.42;3.33;;;7.40;93.00;;;;;;6206089;23;20004;-60
2022/01/31 13:19:18;;;;;;;24.35;3.58;;;7.40;92.90;;;;;;6180736;23;20601;-63
2022/01/31 13:21:43;;;;;;;14.40;2.67;;;7.40;92.90;;;;;;6207752;23;20087;-59
2022/01/31 13:24:10;;;;;;;22.52;4.03;;;7.40;92.90;;;;;;6208174;23;20025;-62